Terminal Aerodrome Forecast
Issued by NWS

Current Version | Previous Version | Graphics & Text | Print | Product List | Glossary On
Versions: 1 2 3 4 5 6 7 8 9 10 11 12 13 14 15 16 17 18 19 20
000
FTUS41 KILN 231100
TAFLCK
TAF
KLCK 231122Z 2312/2412 26007KT P6SM FEW050
     FM231400 28012KT P6SM FEW050
     FM231500 30017G26KT P6SM BKN060
     FM240000 32010KT P6SM FEW060
     FM240600 30004KT P6SM SKC=

USA.gov is the U.S. government's official web portal to all federal, state and local government web resources and services.